createdAt,value
2023-04-04T00:00:41.525Z,3.36
2023-04-04T00:03:10.361Z,3.38
2023-04-04T00:05:40.715Z,3.30
2023-04-04T00:08:08.236Z,3.29
2023-04-04T00:10:34.991Z,3.27
2023-04-04T00:13:03.008Z,3.26
2023-04-04T00:15:29.858Z,3.18
2023-04-04T00:17:57.316Z,3.21
2023-04-04T00:20:24.730Z,3.16
2023-04-04T00:22:51.521Z,3.12
2023-04-04T00:25:18.395Z,3.08
2023-04-04T00:27:45.201Z,3.15
2023-04-04T00:30:13.272Z,3.05
2023-04-04T00:32:40.583Z,3.00
2023-04-04T00:35:08.405Z,3.04
2023-04-04T00:37:35.747Z,2.97
2023-04-04T00:40:04.077Z,2.97
2023-04-04T00:42:30.936Z,3.00
2023-04-04T00:44:58.015Z,2.95
2023-04-04T00:47:29.797Z,2.98
2023-04-04T00:49:56.842Z,2.98
2023-04-04T00:52:23.665Z,2.98
2023-04-04T00:54:51.183Z,2.97
2023-04-04T00:57:19.274Z,2.97
2023-04-04T00:59:46.431Z,2.90
2023-04-04T01:02:13.263Z,2.82
2023-04-04T01:04:40.282Z,2.96
2023-04-04T01:07:07.356Z,2.95
2023-04-04T01:09:34.582Z,2.81
2023-04-04T01:12:02.612Z,2.77
2023-04-04T01:14:29.498Z,2.75
2023-04-04T01:16:56.697Z,2.68
2023-04-04T01:19:42.028Z,2.75
2023-04-04T01:22:09.875Z,2.68
2023-04-04T01:24:41.997Z,2.67
2023-04-04T01:27:08.802Z,2.64
2023-04-04T01:29:35.723Z,2.61
2023-04-04T01:32:19.023Z,2.63
2023-04-04T01:35:30.969Z,2.54
2023-04-04T01:38:06.628Z,2.46
2023-04-04T01:40:37.355Z,2.44
2023-04-04T01:43:04.741Z,2.46
2023-04-04T01:45:32.935Z,2.53
2023-04-04T01:47:59.855Z,2.46
2023-04-04T01:50:27.169Z,2.36
2023-04-04T01:52:54.058Z,2.30
2023-04-04T01:55:21.804Z,2.33
2023-04-04T01:57:48.696Z,2.34
2023-04-04T02:00:16.452Z,2.34
2023-04-04T02:02:44.198Z,2.26
2023-04-04T02:05:11.085Z,2.19
2023-04-04T02:07:38.048Z,2.13
2023-04-04T02:10:05.598Z,2.14
2023-04-04T02:12:32.348Z,2.18
2023-04-04T02:14:59.087Z,2.25
2023-04-04T02:17:28.228Z,2.36
2023-04-04T02:19:55.288Z,2.36
2023-04-04T02:22:22.182Z,2.27
2023-04-04T02:24:48.910Z,2.26
2023-04-04T02:27:15.710Z,2.28
2023-04-04T02:29:42.684Z,2.23
2023-04-04T02:32:09.568Z,2.16
2023-04-04T02:34:36.434Z,2.10
2023-04-04T02:37:03.881Z,2.17
2023-04-04T02:39:30.636Z,2.13
2023-04-04T02:41:57.426Z,2.10
2023-04-04T02:44:24.223Z,2.13
2023-04-04T02:46:51.017Z,2.12
2023-04-04T02:49:18.185Z,2.04
2023-04-04T02:51:45.024Z,2.00
2023-04-04T02:54:11.811Z,2.05
2023-04-04T02:56:38.714Z,2.07
2023-04-04T02:59:05.722Z,1.99
2023-04-04T03:01:32.755Z,1.99
2023-04-04T03:03:59.793Z,1.88
2023-04-04T03:06:26.749Z,1.84
2023-04-04T03:08:53.569Z,1.93
2023-04-04T03:11:21.424Z,1.96
2023-04-04T03:13:51.030Z,1.96
2023-04-04T03:16:20.284Z,1.92
2023-04-04T03:18:47.283Z,1.88
2023-04-04T03:21:14.067Z,1.83
2023-04-04T03:23:42.658Z,1.79
2023-04-04T03:26:09.602Z,1.80
2023-04-04T03:28:36.480Z,1.80
2023-04-04T03:31:05.231Z,1.79
2023-04-04T03:33:36.024Z,1.79
2023-04-04T03:36:02.843Z,1.79
2023-04-04T03:38:29.671Z,1.79
2023-04-04T03:41:03.974Z,1.85
2023-04-04T03:43:31.562Z,1.83
2023-04-04T03:46:06.130Z,1.72
2023-04-04T03:48:34.521Z,1.70
2023-04-04T03:51:04.636Z,1.68
2023-04-04T03:53:32.063Z,1.62
2023-04-04T03:55:59.707Z,1.62
2023-04-04T03:58:28.271Z,1.67
2023-04-04T04:00:55.861Z,1.62
2023-04-04T04:03:22.785Z,1.55
2023-04-04T04:05:49.671Z,1.46
2023-04-04T04:08:16.515Z,1.41
2023-04-04T04:10:43.310Z,1.44
2023-04-04T04:13:10.076Z,1.44
2023-04-04T04:15:37.106Z,1.42
2023-04-04T04:18:04.145Z,1.44
2023-04-04T04:20:31.277Z,1.51
2023-04-04T04:22:58.060Z,1.49
2023-04-04T04:25:25.046Z,1.51
2023-04-04T04:27:58.112Z,1.49
2023-04-04T04:30:25.078Z,1.44
2023-04-04T04:32:51.921Z,1.38
2023-04-04T04:35:18.791Z,1.31
2023-04-04T04:37:45.486Z,1.34
2023-04-04T04:40:14.214Z,1.36
2023-04-04T04:42:47.770Z,1.37
2023-04-04T04:45:14.594Z,1.31
2023-04-04T04:47:41.983Z,1.27
2023-04-04T04:50:09.662Z,1.36
2023-04-04T04:52:38.282Z,1.42
2023-04-04T04:55:06.378Z,1.38
2023-04-04T04:57:34.296Z,1.35
2023-04-04T05:00:01.751Z,1.22
2023-04-04T05:02:28.669Z,1.16
2023-04-04T05:04:55.849Z,1.14
2023-04-04T05:07:23.309Z,1.19
2023-04-04T05:09:53.095Z,1.23
2023-04-04T05:12:20.263Z,1.17
2023-04-04T05:14:47.292Z,1.17
2023-04-04T05:17:14.065Z,1.15
2023-04-04T05:19:41.133Z,1.16
2023-04-04T05:22:08.199Z,1.23
2023-04-04T05:24:35.041Z,1.17
2023-04-04T05:27:02.155Z,1.19
2023-04-04T05:29:29.083Z,1.14
2023-04-04T05:31:55.887Z,1.00
2023-04-04T05:34:22.760Z,1.09
2023-04-04T05:36:49.489Z,1.06
2023-04-04T05:39:16.256Z,1.07
2023-04-04T05:41:43.273Z,1.11
2023-04-04T05:44:10.652Z,1.23
2023-04-04T05:46:37.484Z,1.17
2023-04-04T05:49:04.257Z,1.21
2023-04-04T05:51:31.306Z,1.22
2023-04-04T05:53:58.514Z,1.19
2023-04-04T05:56:27.873Z,1.25
2023-04-04T05:58:54.660Z,1.22
2023-04-04T06:01:21.465Z,1.23
2023-04-04T06:03:48.396Z,1.27
2023-04-04T06:06:15.852Z,1.33
2023-04-04T06:08:52.922Z,1.31
2023-04-04T06:11:21.781Z,1.33
2023-04-04T06:13:48.508Z,1.36
2023-04-04T06:16:18.600Z,1.42
2023-04-04T06:18:48.384Z,1.47
2023-04-04T06:21:15.603Z,1.47
2023-04-04T06:23:42.360Z,1.51
2023-04-04T06:26:09.492Z,1.62
2023-04-04T06:28:36.569Z,1.71
2023-04-04T06:31:06.883Z,1.79
2023-04-04T06:33:33.761Z,1.87
2023-04-04T06:36:00.690Z,1.92
2023-04-04T06:38:29.305Z,1.93
2023-04-04T06:40:56.296Z,1.99
2023-04-04T06:43:23.992Z,1.99
2023-04-04T06:45:50.937Z,2.06
2023-04-04T06:48:17.737Z,2.05
2023-04-04T06:50:44.545Z,2.10
2023-04-04T06:53:12.234Z,2.12
2023-04-04T06:55:39.134Z,2.17
2023-04-04T06:58:06.199Z,2.26
2023-04-04T07:00:33.038Z,2.40
2023-04-04T07:03:01.111Z,2.49
2023-04-04T07:05:28.503Z,2.56
2023-04-04T07:07:57.126Z,2.58
2023-04-04T07:10:25.399Z,2.59
2023-04-04T07:12:53.282Z,2.55
2023-04-04T07:15:20.222Z,2.57
2023-04-04T07:17:47.207Z,2.71
2023-04-04T07:20:14.055Z,2.84
2023-04-04T07:22:42.519Z,2.95
2023-04-04T07:25:10.202Z,2.93
2023-04-04T07:27:37.090Z,2.96
2023-04-04T07:30:05.205Z,3.06
2023-04-04T07:32:31.998Z,3.17
2023-04-04T07:34:58.917Z,3.32
2023-04-04T07:37:28.299Z,3.45
2023-04-04T07:39:55.116Z,3.50
2023-04-04T07:42:25.188Z,3.50
2023-04-04T07:44:52.478Z,3.52
2023-04-04T07:47:20.492Z,3.71
2023-04-04T07:49:47.231Z,3.85
2023-04-04T07:52:14.065Z,4.06
2023-04-04T07:54:41.670Z,4.28
2023-04-04T07:57:09.797Z,4.42
2023-04-04T07:59:37.916Z,4.57
2023-04-04T08:02:04.753Z,4.82
2023-04-04T08:04:31.593Z,4.85
2023-04-04T08:06:58.399Z,5.00
2023-04-04T08:09:25.542Z,5.24
2023-04-04T08:11:52.595Z,5.49
2023-04-04T08:14:19.477Z,5.57
2023-04-04T08:16:46.286Z,5.67
2023-04-04T08:19:13.084Z,5.77
2023-04-04T08:21:39.907Z,5.84
2023-04-04T08:24:07.693Z,6.07
2023-04-04T08:26:34.489Z,6.20
2023-04-04T08:29:01.998Z,6.37
2023-04-04T08:31:29.806Z,6.54
2023-04-04T08:33:56.872Z,6.48
2023-04-04T08:36:23.646Z,6.64
2023-04-04T08:38:50.376Z,6.90
2023-04-04T08:41:17.620Z,7.14
2023-04-04T08:43:56.195Z,7.24
2023-04-04T08:46:24.349Z,7.47
2023-04-04T08:48:53.205Z,7.72
2023-04-04T08:51:22.689Z,7.95
2023-04-04T08:53:49.549Z,8.08
2023-04-04T08:56:19.575Z,8.20
2023-04-04T08:58:46.735Z,8.01
2023-04-04T09:01:14.268Z,8.10
2023-04-04T09:03:43.639Z,8.42
2023-04-04T09:06:10.575Z,8.73
2023-04-04T09:08:37.345Z,8.61
2023-04-04T09:11:04.962Z,8.65
2023-04-04T09:13:31.904Z,8.67
2023-04-04T09:16:00.597Z,8.73
2023-04-04T09:18:28.398Z,8.65
2023-04-04T09:20:55.229Z,8.74
2023-04-04T09:23:23.544Z,8.81
2023-04-04T09:28:25.250Z,9.28
2023-04-04T09:30:52.940Z,9.65
2023-04-04T09:33:23.926Z,9.75
2023-04-04T09:35:58.993Z,9.55
2023-04-04T09:38:28.894Z,9.46
2023-04-04T09:40:56.847Z,9.54
2023-04-04T09:43:25.510Z,9.42
2023-04-04T09:45:54.937Z,9.72
2023-04-04T09:48:35.238Z,9.69
2023-04-04T09:51:06.555Z,9.94
2023-04-04T09:53:42.129Z,10.13
2023-04-04T09:56:09.409Z,10.36
2023-04-04T09:58:46.246Z,10.27
2023-04-04T10:01:17.774Z,10.05
2023-04-04T10:03:54.170Z,10.19
2023-04-04T10:06:22.765Z,10.29
2023-04-04T10:08:50.350Z,10.67
2023-04-04T10:11:35.241Z,10.77
2023-04-04T10:14:06.710Z,10.68
2023-04-04T10:16:36.965Z,10.74
2023-04-04T10:19:08.616Z,10.35
2023-04-04T10:21:36.021Z,10.46
2023-04-04T10:24:09.309Z,10.82
2023-04-04T10:26:36.974Z,10.93
2023-04-04T10:29:05.689Z,11.17
2023-04-04T10:31:38.261Z,11.40
2023-04-04T10:34:39.208Z,11.51
2023-04-04T10:37:27.511Z,12.08
2023-04-04T10:40:07.965Z,12.21
2023-04-04T10:42:46.547Z,12.27
2023-04-04T10:45:21.296Z,12.49
2023-04-04T10:47:50.508Z,12.24
2023-04-04T10:50:17.283Z,12.31
2023-04-04T10:52:46.073Z,12.46
2023-04-04T10:55:15.007Z,12.35
2023-04-04T10:57:47.508Z,12.56
2023-04-04T11:00:17.891Z,12.54
2023-04-04T11:03:02.467Z,13.16
2023-04-04T11:05:51.204Z,13.45
2023-04-04T11:08:25.325Z,13.56
2023-04-04T11:10:54.729Z,13.09
2023-04-04T11:13:35.650Z,13.01
2023-04-04T11:16:15.771Z,13.33
2023-04-04T11:18:43.541Z,13.39
2023-04-04T11:21:19.794Z,13.75
2023-04-04T11:23:54.687Z,14.14
2023-04-04T11:26:30.620Z,13.96
2023-04-04T11:29:00.292Z,14.47
2023-04-04T11:31:35.209Z,14.52
2023-04-04T11:34:11.036Z,14.65
2023-04-04T11:36:37.814Z,15.11
2023-04-04T11:39:14.381Z,15.71
2023-04-04T11:41:50.379Z,16.12
2023-04-04T11:44:18.731Z,16.38
2023-04-04T11:46:51.112Z,15.91
2023-04-04T11:49:18.542Z,16.33
2023-04-04T11:51:46.596Z,16.83
2023-04-04T11:54:17.595Z,16.32
2023-04-04T11:56:45.949Z,16.34
2023-04-04T11:59:17.102Z,16.39
2023-04-04T12:01:44.942Z,16.85
2023-04-04T12:04:12.384Z,16.98
2023-04-04T12:06:39.672Z,17.28
2023-04-04T12:09:07.157Z,16.98
2023-04-04T12:11:35.194Z,17.23
2023-04-04T12:14:02.532Z,17.45
2023-04-04T12:16:30.235Z,17.85
2023-04-04T12:19:01.825Z,17.73
2023-04-04T12:21:33.040Z,17.89
2023-04-04T12:24:00.502Z,17.92
2023-04-04T12:26:30.924Z,17.60
2023-04-04T12:28:58.439Z,17.88
2023-04-04T12:31:27.884Z,17.90
2023-04-04T12:33:54.910Z,18.05
2023-04-04T12:36:25.391Z,18.24
2023-04-04T12:39:06.722Z,18.10
2023-04-04T12:41:35.353Z,18.08
2023-04-04T12:44:10.120Z,18.10
2023-04-04T12:46:41.128Z,18.87
2023-04-04T12:49:11.782Z,18.93
2023-04-04T12:51:39.133Z,18.97
2023-04-04T12:54:07.245Z,18.93
2023-04-04T12:56:37.011Z,19.00
2023-04-04T12:59:09.492Z,19.18
2023-04-04T13:01:38.218Z,19.55
2023-04-04T13:04:08.736Z,19.07
2023-04-04T13:06:37.383Z,18.87
2023-04-04T13:09:07.579Z,18.73
2023-04-04T13:12:02.120Z,18.84
2023-04-04T13:14:56.365Z,18.97
2023-04-04T13:17:24.014Z,19.32
2023-04-04T13:19:52.315Z,19.18
2023-04-04T13:22:19.369Z,19.60
2023-04-04T13:24:46.171Z,19.37
2023-04-04T13:27:12.956Z,18.79
2023-04-04T13:29:39.758Z,18.90
2023-04-04T13:32:06.814Z,18.75
2023-04-04T13:34:35.923Z,18.96
2023-04-04T13:37:02.862Z,18.87
2023-04-04T13:39:29.648Z,18.72
2023-04-04T13:41:57.661Z,18.66
2023-04-04T13:44:26.046Z,18.76
2023-04-04T13:46:54.309Z,18.97
2023-04-04T13:49:21.181Z,18.80
2023-04-04T13:51:48.887Z,18.24
2023-04-04T13:54:16.095Z,17.95
2023-04-04T13:56:43.014Z,17.79
2023-04-04T13:59:11.636Z,17.64
2023-04-04T14:01:41.836Z,17.96
2023-04-04T14:04:22.929Z,18.21
2023-04-04T14:06:50.498Z,18.12
2023-04-04T14:09:17.393Z,18.16
2023-04-04T14:11:46.444Z,18.16
2023-04-04T14:14:13.289Z,17.74
2023-04-04T14:16:40.493Z,17.24
2023-04-04T14:19:07.448Z,17.14
2023-04-04T14:21:37.493Z,17.15
2023-04-04T14:24:04.674Z,17.38
2023-04-04T14:26:33.319Z,17.37
2023-04-04T14:29:00.885Z,17.09
2023-04-04T14:31:27.804Z,16.91
2023-04-04T14:33:54.872Z,16.57
2023-04-04T14:36:21.772Z,16.69
2023-04-04T14:38:48.811Z,16.64
2023-04-04T14:41:16.889Z,16.43
2023-04-04T14:43:44.862Z,16.19
2023-04-04T14:46:11.886Z,16.26
2023-04-04T14:48:38.806Z,16.44
2023-04-04T14:51:06.065Z,16.06
2023-04-04T14:53:32.904Z,15.97
2023-04-04T14:55:59.706Z,15.67
2023-04-04T14:58:26.678Z,15.55
2023-04-04T15:00:53.575Z,15.45
2023-04-04T15:03:20.497Z,14.56
2023-04-04T15:05:48.562Z,13.73
2023-04-04T15:08:15.448Z,12.81
2023-04-04T15:10:42.552Z,12.29
2023-04-04T15:13:09.826Z,12.24
2023-04-04T15:15:36.698Z,12.24
2023-04-04T15:18:03.716Z,12.05
2023-04-04T15:20:30.804Z,11.93
2023-04-04T15:22:57.708Z,12.06
2023-04-04T15:25:24.525Z,12.11
2023-04-04T15:27:51.282Z,11.82
2023-04-04T15:30:18.148Z,11.68
2023-04-04T15:32:45.371Z,11.50
2023-04-04T15:35:20.588Z,11.47
2023-04-04T15:37:49.108Z,11.48
2023-04-04T15:40:17.777Z,11.32
2023-04-04T15:42:46.319Z,11.26
2023-04-04T15:45:15.203Z,11.15
2023-04-04T15:47:42.656Z,11.17
2023-04-04T15:50:11.541Z,11.17
2023-04-04T15:52:38.711Z,11.26
2023-04-04T15:55:16.782Z,11.01
2023-04-04T15:57:44.684Z,11.03
2023-04-04T16:00:14.541Z,11.05
2023-04-04T16:02:41.555Z,10.88
2023-04-04T16:05:08.988Z,10.93
2023-04-04T16:07:35.909Z,10.87
2023-04-04T16:10:03.730Z,10.73
2023-04-04T16:12:30.497Z,10.57
2023-04-04T16:14:57.428Z,10.53
2023-04-04T16:17:26.123Z,10.59
2023-04-04T16:19:53.079Z,10.60
2023-04-04T16:22:19.892Z,10.50
2023-04-04T16:24:46.666Z,10.39
2023-04-04T16:27:13.539Z,10.45
2023-04-04T16:29:40.570Z,10.38
2023-04-04T16:32:08.141Z,10.16
2023-04-04T16:34:37.407Z,10.04
2023-04-04T16:37:04.425Z,10.15
2023-04-04T16:39:31.190Z,10.19
2023-04-04T16:41:57.995Z,10.09
2023-04-04T16:44:24.717Z,10.00
2023-04-04T16:46:51.781Z,9.95
2023-04-04T16:49:21.397Z,9.88
2023-04-04T16:51:48.121Z,9.79
2023-04-04T16:54:14.915Z,9.77
2023-04-04T16:56:42.106Z,9.78
2023-04-04T16:59:08.982Z,9.74
2023-04-04T17:01:37.871Z,9.71
2023-04-04T17:04:05.487Z,9.67
2023-04-04T17:06:33.317Z,9.60
2023-04-04T17:09:00.390Z,9.54
2023-04-04T17:11:28.153Z,9.55
2023-04-04T17:13:54.913Z,9.42
2023-04-04T17:16:23.270Z,9.37
2023-04-04T17:18:50.513Z,9.41
2023-04-04T17:21:18.284Z,9.47
2023-04-04T17:23:46.207Z,9.49
2023-04-04T17:26:13.001Z,9.48
2023-04-04T17:28:42.628Z,9.48
2023-04-04T17:31:09.816Z,9.37
2023-04-04T17:33:36.873Z,9.32
2023-04-04T17:36:04.023Z,9.33
2023-04-04T17:38:30.855Z,9.27
2023-04-04T17:41:04.290Z,9.32
2023-04-04T17:43:31.769Z,9.29
2023-04-04T17:45:58.666Z,9.23
2023-04-04T17:48:26.656Z,9.16
2023-04-04T17:50:53.988Z,9.12
2023-04-04T17:53:21.079Z,9.09
2023-04-04T17:55:48.021Z,8.99
2023-04-04T17:58:15.573Z,8.86
2023-04-04T18:00:42.721Z,8.72
2023-04-04T18:03:09.979Z,8.72
2023-04-04T18:05:37.750Z,8.80
2023-04-04T18:08:05.075Z,8.82
2023-04-04T18:10:32.584Z,8.77
2023-04-04T18:12:59.368Z,8.68
2023-04-04T18:15:26.244Z,8.68
2023-04-04T18:17:53.534Z,8.67
2023-04-04T18:20:33.948Z,8.63
2023-04-04T18:23:03.966Z,8.60
2023-04-04T18:25:31.616Z,8.48
2023-04-04T18:27:58.612Z,8.37
2023-04-04T18:30:26.603Z,8.31
2023-04-04T18:32:53.518Z,8.24
2023-04-04T18:35:20.625Z,8.30
2023-04-04T18:37:47.347Z,8.21
2023-04-04T18:40:14.248Z,8.19
2023-04-04T18:42:41.109Z,8.08
2023-04-04T18:45:08.528Z,7.98
2023-04-04T18:47:36.607Z,7.95
2023-04-04T18:50:04.038Z,7.93
2023-04-04T18:52:31.069Z,7.94
2023-04-04T18:54:57.954Z,7.80
2023-04-04T18:57:26.412Z,7.76
2023-04-04T18:59:53.238Z,7.76
2023-04-04T19:02:20.082Z,7.65
2023-04-04T19:04:48.256Z,7.68
2023-04-04T19:07:22.052Z,7.71
2023-04-04T19:09:50.027Z,7.62
2023-04-04T19:12:17.064Z,7.57
2023-04-04T19:14:43.824Z,7.46
2023-04-04T19:17:13.299Z,7.38
2023-04-04T19:19:40.053Z,7.32
2023-04-04T19:22:07.542Z,7.39
2023-04-04T19:24:34.644Z,7.40
2023-04-04T19:27:03.355Z,7.31
2023-04-04T19:29:31.945Z,7.36
2023-04-04T19:32:05.638Z,7.34
2023-04-04T19:34:32.930Z,7.20
2023-04-04T19:36:59.738Z,7.16
2023-04-04T19:39:33.508Z,7.08
2023-04-04T19:42:01.904Z,6.98
2023-04-04T19:44:29.197Z,6.97
2023-04-04T19:46:58.662Z,6.85
2023-04-04T19:49:33.295Z,6.79
2023-04-04T19:52:04.394Z,6.85
2023-04-04T19:54:41.546Z,6.82
2023-04-04T19:57:19.210Z,6.72
2023-04-04T19:59:59.169Z,6.57
2023-04-04T20:02:34.897Z,6.49
2023-04-04T20:05:02.654Z,6.29
2023-04-04T20:07:29.555Z,6.17
2023-04-04T20:09:56.457Z,5.82
2023-04-04T20:12:24.825Z,5.65
2023-04-04T20:14:58.796Z,5.71
2023-04-04T20:17:25.656Z,5.77
2023-04-04T20:19:52.817Z,5.61
2023-04-04T20:22:19.728Z,5.66
2023-04-04T20:24:47.060Z,5.59
2023-04-04T20:27:24.110Z,5.43
2023-04-04T20:29:53.395Z,5.41
2023-04-04T20:32:20.352Z,5.19
2023-04-04T20:34:49.989Z,5.31
2023-04-04T20:37:26.238Z,5.29
2023-04-04T20:40:01.349Z,5.04
2023-04-04T20:42:34.842Z,4.82
2023-04-04T20:45:32.916Z,4.71
2023-04-04T20:48:06.640Z,4.56
2023-04-04T20:50:34.094Z,4.39
2023-04-04T20:53:04.784Z,4.07
2023-04-04T20:55:34.938Z,4.08
2023-04-04T20:58:30.338Z,4.10
2023-04-04T21:01:01.665Z,3.97
2023-04-04T21:03:36.659Z,3.95
2023-04-04T21:06:11.127Z,4.01
2023-04-04T21:08:47.866Z,3.82
2023-04-04T21:11:25.106Z,3.82
2023-04-04T21:13:52.368Z,4.09
2023-04-04T21:16:26.030Z,4.20
2023-04-04T21:19:01.486Z,4.18
2023-04-04T21:21:29.598Z,4.14
2023-04-04T21:23:59.333Z,4.17
2023-04-04T21:26:36.426Z,4.16
2023-04-04T21:29:11.345Z,4.15
2023-04-04T21:31:40.829Z,4.16
2023-04-04T21:34:14.397Z,4.16
2023-04-04T21:36:43.818Z,4.13
2023-04-04T21:39:15.634Z,4.00
2023-04-04T21:41:45.047Z,3.89
2023-04-04T21:44:12.141Z,3.93
2023-04-04T21:46:41.648Z,3.78
2023-04-04T21:49:10.046Z,3.64
2023-04-04T21:51:37.986Z,3.60
2023-04-04T21:54:05.315Z,3.50
2023-04-04T21:56:32.380Z,3.40
2023-04-04T21:59:02.491Z,3.32
2023-04-04T22:01:30.615Z,3.26
2023-04-04T22:03:58.751Z,3.15
2023-04-04T22:06:27.173Z,3.17
2023-04-04T22:08:57.231Z,3.15
2023-04-04T22:11:27.116Z,3.09
2023-04-04T22:14:04.768Z,3.11
2023-04-04T22:16:32.584Z,2.97
2023-04-04T22:19:00.982Z,2.86
2023-04-04T22:21:28.278Z,2.67
2023-04-04T22:24:02.399Z,2.66
2023-04-04T22:26:32.439Z,2.67
2023-04-04T22:29:04.344Z,2.58
2023-04-04T22:31:34.074Z,2.66
2023-04-04T22:34:02.858Z,2.46
2023-04-04T22:36:29.743Z,2.60
2023-04-04T22:38:57.178Z,2.62
2023-04-04T22:41:29.372Z,2.66
2023-04-04T22:43:57.312Z,2.53
2023-04-04T22:46:29.450Z,2.56
2023-04-04T22:49:04.956Z,2.47
2023-04-04T22:51:35.007Z,2.46
2023-04-04T22:54:02.969Z,2.51
2023-04-04T22:56:29.802Z,2.34
2023-04-04T22:58:56.820Z,2.43
2023-04-04T23:01:23.704Z,2.57
2023-04-04T23:03:50.571Z,2.57
2023-04-04T23:06:20.011Z,2.55
2023-04-04T23:08:47.017Z,2.32
2023-04-04T23:11:13.985Z,2.27
2023-04-04T23:13:42.305Z,2.09
2023-04-04T23:16:09.190Z,2.12
2023-04-04T23:18:36.078Z,2.01
2023-04-04T23:21:03.648Z,1.98
2023-04-04T23:23:30.686Z,2.04
2023-04-04T23:25:58.194Z,2.04
2023-04-04T23:28:27.042Z,1.94
2023-04-04T23:30:54.686Z,2.09
2023-04-04T23:33:21.524Z,2.14
2023-04-04T23:35:48.606Z,1.94
2023-04-04T23:38:16.060Z,2.06
2023-04-04T23:40:42.990Z,1.92
2023-04-04T23:43:09.961Z,1.95
2023-04-04T23:45:39.979Z,1.85
2023-04-04T23:48:07.082Z,1.72
2023-04-04T23:50:34.114Z,1.63
2023-04-04T23:53:00.878Z,1.71
2023-04-04T23:55:27.699Z,1.63
2023-04-04T23:58:00.722Z,1.60
